createdAt,value
2023-04-14T00:00:02.306Z,0
2023-04-14T00:01:02.690Z,0
2023-04-14T00:02:04.008Z,0
2023-04-14T00:03:05.213Z,0
2023-04-14T00:04:06.146Z,0
2023-04-14T00:05:06.512Z,0
2023-04-14T00:06:06.961Z,0
2023-04-14T00:07:08.002Z,0
2023-04-14T00:08:08.436Z,0
2023-04-14T09:31:52.161Z,1644
2023-04-14T09:32:53.848Z,1644
2023-04-14T09:33:55.200Z,1636
2023-04-14T09:34:57.875Z,1596
2023-04-14T09:35:57.085Z,1568
2023-04-14T09:36:59.253Z,1552
2023-04-14T09:38:00.805Z,1516
2023-04-14T09:39:01.695Z,1508
2023-04-14T09:40:03.533Z,1512
2023-04-14T09:41:07.097Z,1488
2023-04-14T09:42:09.112Z,1464
2023-04-14T09:43:10.292Z,1464
2023-04-14T09:44:11.018Z,1452
2023-04-14T09:45:12.840Z,1460
2023-04-14T09:46:13.870Z,1476
2023-04-14T09:47:14.683Z,1448
2023-04-14T09:48:15.316Z,1472
2023-04-14T09:49:17.168Z,1528
2023-04-14T09:50:18.050Z,1556
2023-04-14T09:51:19.717Z,1568
2023-04-14T09:52:21.317Z,1528
2023-04-14T09:53:53.547Z,1568
2023-04-14T09:54:54.048Z,1608
2023-04-14T09:55:54.763Z,1628
2023-04-14T09:56:55.467Z,1712
2023-04-14T09:57:56.255Z,1760
2023-04-14T09:58:57.605Z,1808
2023-04-14T09:59:59.172Z,1716
2023-04-14T10:00:59.940Z,1620
2023-04-14T10:02:00.703Z,1588
2023-04-14T10:03:01.865Z,1564
2023-04-14T10:04:02.844Z,1584
2023-04-14T10:05:03.523Z,1612
2023-04-14T10:06:04.364Z,1644
2023-04-14T10:07:06.361Z,1684
2023-04-14T10:08:07.271Z,1740
2023-04-14T10:09:08.904Z,1776
2023-04-14T10:10:10.360Z,1804
2023-04-14T10:11:12.176Z,1840
2023-04-14T10:12:39.303Z,1848
2023-04-14T10:14:11.174Z,1908
2023-04-14T10:15:13.151Z,1980
2023-04-14T10:16:15.027Z,1992
2023-04-14T10:17:16.370Z,1992
2023-04-14T10:18:17.146Z,2004
2023-04-14T10:19:17.921Z,2012
2023-04-14T10:20:19.183Z,2076
2023-04-14T10:21:20.862Z,2048
2023-04-14T10:22:21.577Z,2012
2023-04-14T10:23:22.217Z,1952
2023-04-14T10:24:38.672Z,1916
2023-04-14T10:25:24.333Z,1908
2023-04-14T10:26:25.146Z,1912
2023-04-14T10:27:25.962Z,1920
2023-04-14T10:28:27.300Z,1980
2023-04-14T10:29:27.942Z,1964
2023-04-14T10:30:29.759Z,1972
2023-04-14T10:31:31.626Z,1980
2023-04-14T10:32:32.545Z,1984
2023-04-14T10:33:34.319Z,2004
2023-04-14T10:34:34.923Z,1988
2023-04-14T10:35:36.356Z,1940
2023-04-14T10:36:37.800Z,1840
2023-04-14T10:37:38.989Z,1856
2023-04-14T10:39:10.903Z,1956
2023-04-14T10:40:11.915Z,2028
2023-04-14T10:41:13.619Z,1824
2023-04-14T10:42:14.616Z,1888
2023-04-14T10:43:15.337Z,1828
2023-04-14T10:44:16.886Z,1756
2023-04-14T10:45:18.349Z,1764
2023-04-14T10:46:19.050Z,1732
2023-04-14T10:47:19.860Z,1744
2023-04-14T10:48:20.449Z,1716
2023-04-14T10:49:21.613Z,1796
2023-04-14T10:50:23.343Z,1864
2023-04-14T10:51:24.841Z,1912
2023-04-14T10:52:25.573Z,1984
2023-04-14T10:53:26.797Z,2128
2023-04-14T10:54:27.511Z,2240
2023-04-14T10:55:28.360Z,2276
2023-04-14T10:56:29.139Z,2160
2023-04-14T10:57:30.015Z,2104
2023-04-14T10:58:31.327Z,2028
2023-04-14T10:59:32.779Z,1840
2023-04-14T11:00:33.565Z,1816
2023-04-14T11:01:35.120Z,1808
2023-04-14T11:02:36.045Z,1776
2023-04-14T11:03:37.401Z,1864
2023-04-14T11:05:09.280Z,1884
2023-04-14T11:06:10.696Z,1908
2023-04-14T11:07:11.462Z,1932
2023-04-14T11:08:12.147Z,1880
2023-04-14T11:09:13.710Z,1760
2023-04-14T11:10:15.207Z,1708
2023-04-14T11:11:16.986Z,1716
2023-04-14T11:12:18.478Z,1720
2023-04-14T11:13:19.068Z,1752
2023-04-14T11:14:20.689Z,1848
2023-04-14T11:15:21.526Z,2004
2023-04-14T11:16:22.281Z,2048
2023-04-14T11:17:23.297Z,2008
2023-04-14T11:18:23.688Z,2052
2023-04-14T11:19:25.122Z,2004
2023-04-14T11:20:25.870Z,2020
2023-04-14T11:21:27.427Z,1908
2023-04-14T11:22:28.467Z,1856
2023-04-14T11:23:29.804Z,1812
2023-04-14T11:24:30.404Z,1764
2023-04-14T11:25:31.153Z,1784
2023-04-14T11:26:32.791Z,1840
2023-04-14T11:27:34.348Z,1820
2023-04-14T11:28:35.020Z,1840
2023-04-14T11:29:36.644Z,1820
2023-04-14T11:30:37.433Z,1980
2023-04-14T11:32:09.690Z,2092
2023-04-14T11:33:10.401Z,2148
2023-04-14T11:34:11.698Z,2176
2023-04-14T11:35:12.564Z,2232
2023-04-14T11:36:14.206Z,2176
2023-04-14T11:37:15.925Z,2020
2023-04-14T11:38:17.488Z,1928
2023-04-14T11:39:18.853Z,1860
2023-04-14T11:40:19.622Z,1828
2023-04-14T11:41:21.606Z,1872
2023-04-14T11:42:22.513Z,1896
2023-04-14T11:43:24.138Z,1844
2023-04-14T11:44:25.617Z,1796
2023-04-14T11:45:27.331Z,1752
2023-04-14T11:46:28.882Z,1732
2023-04-14T11:47:30.369Z,1612
2023-04-14T11:48:31.186Z,1652
2023-04-14T11:49:31.692Z,1788
2023-04-14T11:50:32.323Z,2124
2023-04-14T11:51:33.007Z,2388
2023-04-14T11:52:34.598Z,2300
2023-04-14T11:53:35.816Z,2020
2023-04-14T11:54:36.543Z,2036
2023-04-14T11:55:38.066Z,2036
2023-04-14T11:57:09.016Z,2048
2023-04-14T11:58:10.593Z,2048
2023-04-14T11:59:11.182Z,2016
2023-04-14T12:00:12.648Z,2036
2023-04-14T12:01:13.660Z,2168
2023-04-14T12:02:15.309Z,2252
2023-04-14T12:03:16.560Z,2324
2023-04-14T12:04:17.147Z,2136
2023-04-14T12:05:18.389Z,2044
2023-04-14T12:06:19.004Z,2172
2023-04-14T12:07:19.756Z,2288
2023-04-14T12:08:20.338Z,2376
2023-04-14T12:09:22.359Z,2148
2023-04-14T12:10:23.024Z,1856
2023-04-14T12:11:24.618Z,1740
2023-04-14T12:12:28.601Z,1768
2023-04-14T12:13:27.326Z,1780
2023-04-14T12:14:27.976Z,1860
2023-04-14T12:15:28.702Z,1992
2023-04-14T12:16:29.490Z,2056
2023-04-14T12:17:30.131Z,1988
2023-04-14T12:18:30.660Z,2008
2023-04-14T12:19:31.360Z,2224
2023-04-14T12:20:32.020Z,2408
2023-04-14T12:21:32.734Z,2388
2023-04-14T12:22:34.117Z,2572
2023-04-14T12:23:35.282Z,2772
2023-04-14T12:24:36.003Z,2784
2023-04-14T12:25:36.686Z,2888
2023-04-14T12:26:37.778Z,2368
2023-04-14T12:28:08.724Z,2316
2023-04-14T12:29:10.152Z,2228
2023-04-14T12:30:10.969Z,2332
2023-04-14T12:31:11.666Z,2360
2023-04-14T12:32:12.844Z,2416
2023-04-14T12:33:13.756Z,2312
2023-04-14T12:34:15.342Z,2320
2023-04-14T12:35:16.072Z,2348
2023-04-14T12:36:16.716Z,2320
2023-04-14T12:37:17.366Z,2316
2023-04-14T12:38:18.058Z,2360
2023-04-14T12:39:20.297Z,2456
2023-04-14T12:40:21.020Z,2624
2023-04-14T12:41:21.623Z,2524
2023-04-14T12:42:23.158Z,2368
2023-04-14T12:43:24.375Z,2348
2023-04-14T12:44:25.820Z,2524
2023-04-14T12:45:28.041Z,2708
2023-04-14T12:46:27.228Z,2828
2023-04-14T12:47:28.630Z,2920
2023-04-14T12:48:29.283Z,2800
2023-04-14T12:49:30.719Z,2748
2023-04-14T12:50:31.389Z,2984
2023-04-14T12:51:32.136Z,3196
2023-04-14T12:52:33.758Z,3200
2023-04-14T12:53:34.476Z,3300
2023-04-14T12:54:35.142Z,3296
2023-04-14T12:55:36.691Z,3420
2023-04-14T12:57:08.188Z,3368
2023-04-14T12:58:09.146Z,3352
2023-04-14T12:59:10.927Z,3660
2023-04-14T13:00:11.860Z,3680
2023-04-14T13:01:12.642Z,3696
2023-04-14T13:02:13.905Z,3828
2023-04-14T13:03:14.882Z,3740
2023-04-14T13:04:16.163Z,2592
2023-04-14T13:05:16.674Z,2732
2023-04-14T13:06:18.233Z,2416
2023-04-14T13:07:19.655Z,2236
2023-04-14T13:08:20.298Z,2412
2023-04-14T13:09:22.306Z,2372
2023-04-14T13:10:22.962Z,2312
2023-04-14T13:11:24.431Z,3052
2023-04-14T13:12:26.054Z,3644
2023-04-14T13:13:27.009Z,2220
2023-04-14T13:14:28.924Z,2324
2023-04-14T13:16:11.903Z,2388
2023-04-14T13:16:31.354Z,2428
2023-04-14T13:17:32.141Z,2444
2023-04-14T13:18:32.656Z,3828
2023-04-14T13:19:34.219Z,3704
2023-04-14T13:20:34.873Z,3660
2023-04-14T13:21:35.636Z,3808
2023-04-14T13:22:36.832Z,4216
2023-04-14T13:24:07.700Z,4444
2023-04-14T13:25:08.493Z,4432
2023-04-14T13:26:09.137Z,4380
2023-04-14T13:27:10.632Z,4352
2023-04-14T13:28:12.079Z,4332
2023-04-14T13:29:12.634Z,4152
2023-04-14T13:30:14.481Z,2672
2023-04-14T13:31:15.304Z,4584
2023-04-14T13:32:16.051Z,4596
2023-04-14T13:33:17.064Z,4896
2023-04-14T13:34:18.311Z,5284
2023-04-14T13:35:18.851Z,5716
2023-04-14T13:36:19.533Z,6124
2023-04-14T13:37:20.190Z,6760
2023-04-14T13:38:20.718Z,7576
2023-04-14T13:39:22.813Z,8476
2023-04-14T13:40:23.534Z,9164
2023-04-14T13:41:25.085Z,9740
2023-04-14T13:42:26.708Z,10036
2023-04-14T13:43:27.348Z,10160
2023-04-14T13:44:28.822Z,10264
2023-04-14T13:45:29.384Z,10312
2023-04-14T13:46:34.393Z,10284
2023-04-14T13:47:32.308Z,10060
2023-04-14T13:48:33.616Z,9896
2023-04-14T13:49:34.784Z,9748
2023-04-14T13:50:35.420Z,9320
2023-04-14T13:52:07.152Z,2592
2023-04-14T13:53:07.729Z,8728
2023-04-14T13:54:09.247Z,8576
2023-04-14T13:55:10.849Z,8536
2023-04-14T13:56:11.367Z,8536
2023-04-14T13:57:11.949Z,9684
2023-04-14T13:58:13.607Z,17568
2023-04-14T13:59:14.869Z,17440
2023-04-14T14:00:15.590Z,9144
2023-04-14T14:01:16.199Z,8416
2023-04-14T14:02:16.888Z,8364
2023-04-14T14:03:18.412Z,11012
2023-04-14T14:04:19.924Z,20800
2023-04-14T14:05:20.411Z,3780
2023-04-14T14:06:21.005Z,9260
2023-04-14T14:07:21.623Z,8412
2023-04-14T14:08:23.127Z,8048
2023-04-14T14:09:24.324Z,8952
2023-04-14T14:10:25.870Z,18176
2023-04-14T14:11:26.477Z,20064
2023-04-14T14:12:27.187Z,12232
2023-04-14T14:13:27.906Z,2864
2023-04-14T14:14:29.118Z,8436
2023-04-14T14:15:30.859Z,8572
2023-04-14T14:17:32.898Z,24832
2023-04-14T14:18:34.208Z,25536
2023-04-14T14:19:35.959Z,9100
2023-04-14T14:21:06.872Z,8720
2023-04-14T14:22:08.292Z,8720
2023-04-14T14:23:08.927Z,3344
2023-04-14T14:24:10.416Z,9908
2023-04-14T14:25:20.244Z,3140
2023-04-14T14:26:12.401Z,8188
2023-04-14T14:27:12.989Z,3076
2023-04-14T14:28:14.912Z,7740
2023-04-14T14:29:15.556Z,7960
2023-04-14T14:30:17.065Z,3040
2023-04-14T14:31:18.330Z,8816
2023-04-14T14:32:18.999Z,9276
2023-04-14T14:33:19.497Z,3120
2023-04-14T14:34:20.633Z,3104
2023-04-14T14:35:21.794Z,11184
2023-04-14T14:36:22.408Z,12772
2023-04-14T14:37:22.965Z,19776
2023-04-14T14:38:24.314Z,3680
2023-04-14T14:39:25.782Z,5472
2023-04-14T14:40:27.131Z,60448
2023-04-14T14:41:27.718Z,61696
2023-04-14T14:42:29.557Z,49792
2023-04-14T14:43:31.068Z,48736
2023-04-14T14:44:31.806Z,57664
2023-04-14T14:45:33.728Z,59200
2023-04-14T14:46:33.976Z,50144
2023-04-14T14:47:34.659Z,25920
2023-04-14T14:49:06.471Z,16032
2023-04-14T14:50:08.762Z,6704
2023-04-14T14:51:08.506Z,5972
2023-04-14T14:52:09.178Z,13560
2023-04-14T14:53:09.723Z,6116
2023-04-14T14:54:11.074Z,12316
2023-04-14T14:55:11.802Z,29696
2023-04-14T14:56:13.634Z,42784
2023-04-14T14:57:14.309Z,45760
2023-04-14T14:58:15.765Z,45088
2023-04-14T14:59:16.452Z,42720
2023-04-14T15:00:17.160Z,41632
2023-04-14T15:01:17.734Z,43648
2023-04-14T15:02:18.600Z,43456
2023-04-14T15:03:19.148Z,47968
2023-04-14T15:04:20.680Z,47040
2023-04-14T15:05:21.886Z,46208
2023-04-14T15:06:22.504Z,48128
2023-04-14T15:07:24.048Z,50336
2023-04-14T15:08:25.288Z,51232
2023-04-14T15:09:26.758Z,43328
2023-04-14T15:10:28.350Z,22464
2023-04-14T15:11:28.878Z,17344
2023-04-14T15:12:30.120Z,30112
2023-04-14T15:13:31.628Z,42176
2023-04-14T15:14:32.212Z,47648
2023-04-14T15:15:32.856Z,46400
2023-04-14T15:16:33.477Z,45632
2023-04-14T15:17:34.057Z,45728
2023-04-14T15:18:35.385Z,46368
2023-04-14T15:20:07.458Z,44352
2023-04-14T15:21:08.099Z,42560
2023-04-14T15:22:08.713Z,43616
2023-04-14T15:23:09.374Z,41248
2023-04-14T15:24:10.831Z,4668
2023-04-14T15:25:11.716Z,29280
2023-04-14T15:26:13.473Z,37984
2023-04-14T15:27:14.132Z,34944
2023-04-14T15:28:15.844Z,31712
2023-04-14T15:29:17.341Z,27840
2023-04-14T15:30:17.981Z,21472
2023-04-14T15:31:19.446Z,14032
2023-04-14T15:32:19.983Z,7920
2023-04-14T15:33:20.669Z,10656
2023-04-14T15:34:22.171Z,11884
2023-04-14T15:35:23.341Z,10888
2023-04-14T15:36:24.123Z,13636
2023-04-14T15:37:24.731Z,15424
2023-04-14T15:38:26.146Z,15392
2023-04-14T15:39:28.351Z,13972
2023-04-14T15:40:29.853Z,15872
2023-04-14T15:41:30.572Z,15776
2023-04-14T15:42:31.101Z,15744
2023-04-14T15:43:31.846Z,15584
2023-04-14T15:44:33.174Z,15264
2023-04-14T15:45:33.788Z,13616
2023-04-14T15:47:05.860Z,12056
2023-04-14T15:48:07.362Z,10036
2023-04-14T15:49:08.824Z,6060
2023-04-14T15:50:10.551Z,6516
2023-04-14T15:51:10.156Z,7924
2023-04-14T15:52:11.688Z,12796
2023-04-14T15:53:12.302Z,6392
2023-04-14T15:54:13.658Z,8672
2023-04-14T15:55:14.294Z,8404
2023-04-14T15:56:15.848Z,4712
2023-04-14T15:57:16.412Z,4964
2023-04-14T15:58:17.026Z,4640
2023-04-14T15:59:18.132Z,4200
2023-04-14T16:00:19.337Z,5884
2023-04-14T16:01:20.198Z,8776
2023-04-14T16:02:20.905Z,5396
2023-04-14T16:03:22.031Z,8256
2023-04-14T16:04:23.514Z,6988
2023-04-14T16:05:24.011Z,6964
2023-04-14T16:06:24.549Z,7256
2023-04-14T16:07:25.345Z,5980
2023-04-14T16:08:26.240Z,4172
2023-04-14T16:09:27.687Z,3952
2023-04-14T16:10:29.187Z,6500
2023-04-14T16:11:30.347Z,5348
2023-04-14T16:12:31.941Z,6736
2023-04-14T16:13:32.772Z,9392
2023-04-14T16:14:34.168Z,6008
2023-04-14T16:16:05.526Z,4444
2023-04-14T16:17:06.173Z,7204
2023-04-14T16:18:06.922Z,7140
2023-04-14T16:19:08.280Z,8008
2023-04-14T16:20:09.635Z,7876
2023-04-14T16:21:10.194Z,7848
2023-04-14T16:22:10.846Z,7564
2023-04-14T16:23:11.583Z,7660
2023-04-14T16:24:12.857Z,7756
2023-04-14T16:25:13.612Z,8136
2023-04-14T16:26:14.147Z,8308
2023-04-14T16:27:14.953Z,8040
2023-04-14T16:28:16.323Z,8140
2023-04-14T16:29:17.737Z,8572
2023-04-14T16:30:19.145Z,7364
2023-04-14T16:31:19.761Z,8364
2023-04-14T16:32:20.372Z,8112
2023-04-14T16:33:21.082Z,5144
2023-04-14T16:34:22.627Z,5664
2023-04-14T16:35:23.207Z,6520
2023-04-14T16:36:23.807Z,6932
2023-04-14T16:37:24.470Z,5092
2023-04-14T16:38:25.308Z,4636
2023-04-14T16:39:26.781Z,5480
2023-04-14T16:40:28.453Z,4260
2023-04-14T16:41:28.945Z,4880
2023-04-14T16:42:30.376Z,3600
2023-04-14T16:43:30.972Z,2236
2023-04-14T16:44:32.193Z,2832
2023-04-14T16:45:32.932Z,2528
2023-04-14T16:46:34.477Z,1656
2023-04-14T16:48:05.784Z,2036
2023-04-14T16:49:06.821Z,1664
2023-04-14T16:50:08.182Z,1972
2023-04-14T16:51:08.844Z,1532
2023-04-14T16:52:10.510Z,1196
2023-04-14T16:53:11.931Z,872
2023-04-14T16:54:12.640Z,816
2023-04-14T16:55:13.581Z,764
2023-04-14T16:56:14.990Z,724
2023-04-14T16:57:15.755Z,692
2023-04-14T16:58:16.584Z,660
2023-04-14T16:59:18.245Z,632
2023-04-14T17:00:19.630Z,596
2023-04-14T17:01:20.404Z,564
2023-04-14T17:02:22.265Z,536
2023-04-14T17:03:24.047Z,516
2023-04-14T17:04:25.507Z,504
2023-04-14T17:05:25.935Z,484
2023-04-14T17:06:26.592Z,456
2023-04-14T17:07:28.291Z,428
2023-04-14T17:08:29.836Z,408
2023-04-14T17:09:31.351Z,388
2023-04-14T17:10:32.816Z,368
2023-04-14T17:11:33.475Z,340
2023-04-14T17:13:05.272Z,332
2023-04-14T17:14:06.830Z,328
2023-04-14T17:15:07.453Z,324
2023-04-14T17:16:09.553Z,316
2023-04-14T17:17:09.571Z,304
2023-04-14T17:18:10.898Z,300
2023-04-14T17:19:12.377Z,296
2023-04-14T17:20:13.017Z,292
2023-04-14T17:21:13.682Z,292
2023-04-14T17:22:15.455Z,292
2023-04-14T17:23:17.570Z,284
2023-04-14T17:24:20.023Z,272
2023-04-14T17:25:20.605Z,256
2023-04-14T17:26:21.953Z,236
2023-04-14T17:27:23.491Z,204
2023-04-14T17:28:24.141Z,176
2023-04-14T17:29:25.824Z,156
2023-04-14T17:30:26.423Z,140
2023-04-14T17:31:27.226Z,132
2023-04-14T17:32:28.107Z,124
2023-04-14T17:33:28.755Z,116
2023-04-14T17:34:30.182Z,112
2023-04-14T17:35:30.882Z,108
2023-04-14T17:36:31.584Z,104
2023-04-14T17:37:32.321Z,100
2023-04-14T17:38:32.994Z,80
2023-04-14T17:40:05.410Z,72
2023-04-14T17:41:05.992Z,64
2023-04-14T17:42:06.924Z,60
2023-04-14T17:43:07.662Z,52
2023-04-14T17:44:08.843Z,48
2023-04-14T17:45:09.523Z,44
2023-04-14T17:46:10.221Z,44
2023-04-14T17:47:10.935Z,40
2023-04-14T17:48:11.832Z,36
2023-04-14T17:49:13.620Z,36
2023-04-14T17:50:14.901Z,36
2023-04-14T17:51:15.495Z,36
2023-04-14T17:52:16.397Z,36
2023-04-14T17:53:17.176Z,36
2023-04-14T17:54:18.339Z,36
2023-04-14T17:55:19.051Z,36
2023-04-14T17:56:20.272Z,28
2023-04-14T17:57:21.962Z,28
2023-04-14T17:58:22.892Z,24
2023-04-14T17:59:24.147Z,20
2023-04-14T18:00:25.591Z,20
2023-04-14T18:01:26.438Z,20
2023-04-14T18:02:27.953Z,16
2023-04-14T18:03:28.881Z,12
2023-04-14T18:04:30.212Z,16
2023-04-14T18:05:30.791Z,12
2023-04-14T18:06:31.540Z,12
2023-04-14T18:07:32.305Z,12
2023-04-14T18:08:34.400Z,8
2023-04-14T18:10:06.840Z,8
2023-04-14T18:11:07.642Z,8
2023-04-14T18:12:08.344Z,8
2023-04-14T18:13:09.101Z,12
2023-04-14T18:14:10.445Z,12
2023-04-14T18:15:10.929Z,8
2023-04-14T18:16:12.243Z,8
2023-04-14T18:17:13.886Z,8
2023-04-14T18:18:15.353Z,4
2023-04-14T18:19:16.087Z,8
2023-04-14T18:20:17.644Z,4
2023-04-14T18:21:19.332Z,4
2023-04-14T18:22:20.034Z,4
2023-04-14T18:23:22.324Z,4
2023-04-14T18:25:24.382Z,0
2023-04-14T18:26:26.674Z,0
2023-04-14T18:28:27.263Z,4
2023-04-14T18:29:28.918Z,0
2023-04-14T18:30:30.379Z,0
2023-04-14T18:31:31.417Z,0
2023-04-14T18:32:32.027Z,0
2023-04-14T18:34:04.361Z,0
2023-04-14T18:35:04.997Z,0
2023-04-14T18:36:05.629Z,0
2023-04-14T18:37:06.344Z,0
2023-04-14T18:38:07.899Z,0
2023-04-14T18:39:09.318Z,0
2023-04-14T18:40:10.927Z,0
2023-04-14T18:41:11.631Z,0
2023-04-14T18:42:13.542Z,0
2023-04-14T18:43:14.841Z,0
2023-04-14T18:44:15.428Z,0
2023-04-14T18:45:16.189Z,0
2023-04-14T18:46:17.305Z,0
2023-04-14T18:47:18.025Z,0
2023-04-14T18:48:19.110Z,0
2023-04-14T18:49:21.336Z,0
2023-04-14T18:50:22.965Z,0
2023-04-14T18:51:23.635Z,0
2023-04-14T18:52:24.257Z,0
2023-04-14T18:53:25.708Z,0
2023-04-14T18:54:26.901Z,0
2023-04-14T18:55:28.478Z,0
2023-04-14T18:56:29.283Z,0
2023-04-14T18:57:30.791Z,0
2023-04-14T18:58:32.379Z,0
2023-04-14T19:00:04.172Z,0
2023-04-14T19:01:05.733Z,0
2023-04-14T19:02:06.567Z,0
2023-04-14T19:03:07.231Z,0
2023-04-14T19:04:08.386Z,0
2023-04-14T19:05:09.051Z,0
2023-04-14T19:06:09.820Z,0
2023-04-14T19:07:10.575Z,0
2023-04-14T19:08:11.667Z,0
2023-04-14T19:09:12.832Z,0
2023-04-14T19:10:14.506Z,0
2023-04-14T19:11:15.326Z,0
2023-04-14T19:12:27.672Z,0
2023-04-14T19:13:16.460Z,0
2023-04-14T19:14:17.056Z,0
2023-04-14T19:15:18.397Z,0
2023-04-14T19:16:19.141Z,0
2023-04-14T19:17:19.617Z,0
2023-04-14T19:18:20.220Z,0
2023-04-14T19:19:21.895Z,0
2023-04-14T19:20:23.416Z,0
2023-04-14T19:21:24.209Z,0
2023-04-14T19:22:24.755Z,0
2023-04-14T19:23:25.289Z,0
2023-04-14T19:24:26.849Z,0
2023-04-14T19:25:28.297Z,0
2023-04-14T19:26:29.793Z,0
2023-04-14T19:27:30.421Z,0
2023-04-14T19:28:30.983Z,0
2023-04-14T19:29:32.616Z,0
2023-04-14T19:31:04.252Z,0
2023-04-14T19:32:05.016Z,0
2023-04-14T19:33:06.365Z,0
2023-04-14T19:34:07.910Z,0
2023-04-14T19:35:09.390Z,0
2023-04-14T19:36:09.944Z,0
2023-04-14T19:37:11.375Z,0
2023-04-14T19:38:12.228Z,0
2023-04-14T19:39:13.964Z,0
2023-04-14T19:40:15.857Z,0
2023-04-14T19:41:16.610Z,0
2023-04-14T19:42:18.119Z,0
2023-04-14T19:43:18.689Z,0
2023-04-14T19:44:20.504Z,0
2023-04-14T19:45:21.146Z,0
2023-04-14T19:46:21.898Z,0
2023-04-14T19:47:22.596Z,0
2023-04-14T19:48:24.510Z,0
2023-04-14T19:49:25.853Z,0
2023-04-14T19:50:27.356Z,0
2023-04-14T19:51:27.954Z,0
2023-04-14T19:52:29.377Z,0
2023-04-14T19:53:29.947Z,0
2023-04-14T19:54:31.354Z,0
2023-04-14T19:55:32.398Z,0
2023-04-14T19:57:03.399Z,0
2023-04-14T19:58:03.982Z,0
2023-04-14T19:59:05.415Z,0
2023-04-14T20:00:08.401Z,0
2023-04-14T20:01:10.925Z,0
2023-04-14T20:02:11.550Z,0
2023-04-14T20:03:12.344Z,0
2023-04-14T20:04:14.060Z,0
2023-04-14T20:05:44.635Z,0
2023-04-14T20:07:15.547Z,0
2023-04-14T20:08:16.282Z,0
2023-04-14T20:09:18.016Z,0
2023-04-14T20:10:19.406Z,0
2023-04-14T20:11:20.249Z,0
2023-04-14T20:12:21.853Z,0
2023-04-14T20:13:22.637Z,0
2023-04-14T20:14:23.933Z,0
2023-04-14T20:15:25.372Z,0
2023-04-14T20:16:26.197Z,0
2023-04-14T20:17:26.824Z,0
2023-04-14T20:18:27.566Z,0
2023-04-14T20:19:29.236Z,0
2023-04-14T20:20:30.922Z,0
2023-04-14T20:21:31.510Z,0
2023-04-14T20:23:03.059Z,0
2023-04-14T20:24:04.423Z,0
2023-04-14T20:25:05.057Z,0
2023-04-14T20:26:05.853Z,0
2023-04-14T20:27:07.424Z,0
2023-04-14T20:28:09.881Z,0
2023-04-14T20:29:12.750Z,0
2023-04-14T20:30:15.890Z,0
2023-04-14T20:31:19.583Z,0
2023-04-14T20:32:21.096Z,0
2023-04-14T20:33:26.117Z,0
2023-04-14T20:34:27.570Z,0
2023-04-14T20:35:28.989Z,0
2023-04-14T20:36:32.328Z,0
2023-04-14T20:38:05.654Z,0
2023-04-14T20:39:10.918Z,0
2023-04-14T20:40:14.947Z,0
2023-04-14T20:41:17.039Z,0
2023-04-14T20:42:21.031Z,0
2023-04-14T20:43:23.243Z,0
2023-04-14T20:44:26.000Z,0
2023-04-14T20:45:27.139Z,0
2023-04-14T20:46:30.206Z,0
2023-04-14T20:48:03.237Z,0
2023-04-14T20:49:08.252Z,0
2023-04-14T20:50:18.213Z,0
2023-04-14T20:51:21.243Z,0
2023-04-14T20:52:25.620Z,0
2023-04-14T20:53:32.605Z,0
2023-04-14T20:55:07.668Z,0
2023-04-14T20:56:09.335Z,0
2023-04-14T20:57:14.682Z,0
2023-04-14T20:58:18.341Z,0
2023-04-14T20:59:21.561Z,0
2023-04-14T21:00:26.237Z,0
2023-04-14T21:01:33.340Z,0
2023-04-14T21:03:06.555Z,0
2023-04-14T21:04:09.032Z,0
2023-04-14T21:05:10.507Z,0
2023-04-14T21:06:14.752Z,0
2023-04-14T21:07:47.692Z,0
2023-04-14T21:09:22.988Z,0
2023-04-14T21:10:25.733Z,0
2023-04-14T21:11:27.382Z,0
2023-04-14T21:12:35.433Z,0
2023-04-14T21:15:31.268Z,0
2023-04-14T21:15:46.974Z,0
2023-04-14T21:16:09.314Z,0
2023-04-14T21:17:11.889Z,0
2023-04-14T21:18:15.552Z,0
2023-04-14T21:19:21.349Z,0
2023-04-14T21:20:24.345Z,0
2023-04-14T21:21:26.439Z,0
2023-04-14T21:22:29.862Z,0
2023-04-14T21:23:31.477Z,0
2023-04-14T21:25:08.108Z,0
2023-04-14T21:26:15.895Z,0
2023-04-14T21:27:18.886Z,0
2023-04-14T21:28:27.886Z,0
2023-04-14T21:29:29.754Z,0
2023-04-14T21:30:32.055Z,0
2023-04-14T21:32:05.499Z,0
2023-04-14T21:33:08.887Z,0
2023-04-14T21:34:12.330Z,0
2023-04-14T21:35:17.257Z,0
2023-04-14T21:36:19.998Z,0
2023-04-14T21:37:21.891Z,0
2023-04-14T21:38:23.474Z,0
2023-04-14T21:39:25.842Z,0
2023-04-14T21:40:58.990Z,0
2023-04-14T21:42:03.161Z,0
2023-04-14T21:43:05.176Z,0
2023-04-14T21:44:09.605Z,0
2023-04-14T21:45:12.398Z,0
2023-04-14T21:46:19.813Z,0
2023-04-14T21:47:21.534Z,0
2023-04-14T21:48:24.937Z,0
2023-04-14T21:49:27.520Z,0
2023-04-14T21:50:33.441Z,0
2023-04-14T21:52:07.177Z,0
2023-04-14T21:53:12.797Z,0
2023-04-14T21:54:15.835Z,0
2023-04-14T21:55:21.390Z,0
2023-04-14T21:56:27.996Z,0
2023-04-14T21:57:48.960Z,0
2023-04-14T21:58:33.334Z,0
2023-04-14T22:00:08.287Z,0
2023-04-14T22:01:12.556Z,0
2023-04-14T22:02:17.762Z,0
2023-04-14T22:03:18.865Z,0
2023-04-14T22:04:32.976Z,0
2023-04-14T22:05:25.365Z,0
2023-04-14T22:06:28.648Z,0
2023-04-14T22:07:30.903Z,0
2023-04-14T22:08:33.499Z,0
2023-04-14T22:10:07.724Z,0
2023-04-14T22:11:11.232Z,0
2023-04-14T22:12:15.549Z,0
2023-04-14T22:13:17.957Z,0
2023-04-14T22:14:20.200Z,0
2023-04-14T22:15:21.398Z,0
2023-04-14T22:16:24.059Z,0
2023-04-14T22:17:24.879Z,0
2023-04-14T22:18:27.052Z,0
2023-04-14T22:19:28.411Z,0
2023-04-14T22:20:32.372Z,0
2023-04-14T22:22:04.657Z,0
2023-04-14T22:23:07.113Z,0
2023-04-14T22:24:10.193Z,0
2023-04-14T22:25:11.957Z,0
2023-04-14T22:26:15.774Z,0
2023-04-14T22:27:18.103Z,0
2023-04-14T22:28:20.754Z,0
2023-04-14T22:29:24.832Z,0
2023-04-14T22:30:26.797Z,0
2023-04-14T22:31:28.274Z,0
2023-04-14T22:33:31.592Z,0
2023-04-14T22:35:06.489Z,0
2023-04-14T22:36:08.816Z,0
2023-04-14T22:37:10.378Z,0
2023-04-14T22:38:16.382Z,0
2023-04-14T22:39:20.184Z,0
2023-04-14T22:40:25.908Z,0
2023-04-14T22:41:30.631Z,0
2023-04-14T22:42:32.959Z,0
2023-04-14T22:44:06.921Z,0
2023-04-14T22:45:09.754Z,0
2023-04-14T22:46:11.727Z,0
2023-04-14T22:47:14.663Z,0
2023-04-14T22:48:16.746Z,0
2023-04-14T22:49:21.193Z,0
2023-04-14T22:50:22.832Z,0
2023-04-14T22:51:25.490Z,0
2023-04-14T22:52:31.098Z,0
2023-04-14T22:54:06.996Z,0
2023-04-14T22:55:16.178Z,0
2023-04-14T22:56:17.715Z,0
2023-04-14T22:57:19.150Z,0
2023-04-14T22:58:21.186Z,0
2023-04-14T22:59:25.725Z,0
2023-04-14T23:00:25.112Z,0
2023-04-14T23:01:27.706Z,0
2023-04-14T23:02:29.067Z,0
2023-04-14T23:03:31.637Z,0
2023-04-14T23:05:06.477Z,0
2023-04-14T23:06:09.789Z,0
2023-04-14T23:07:11.704Z,0
2023-04-14T23:08:15.762Z,0
2023-04-14T23:09:19.214Z,0
2023-04-14T23:10:21.936Z,0
2023-04-14T23:11:25.605Z,0
2023-04-14T23:12:28.382Z,0
2023-04-14T23:13:30.786Z,0
2023-04-14T23:15:04.541Z,0
2023-04-14T23:16:07.099Z,0
2023-04-14T23:17:08.929Z,0
2023-04-14T23:18:11.164Z,0
2023-04-14T23:19:14.151Z,0
2023-04-14T23:20:15.505Z,0
2023-04-14T23:21:16.201Z,0
2023-04-14T23:22:17.462Z,0
2023-04-14T23:23:19.829Z,0
2023-04-14T23:24:52.627Z,0
2023-04-14T23:26:25.208Z,0
2023-04-14T23:27:27.134Z,0
2023-04-14T23:28:29.513Z,0
2023-04-14T23:29:32.685Z,0
2023-04-14T23:31:05.543Z,0
2023-04-14T23:32:08.249Z,0
2023-04-14T23:33:10.502Z,0
2023-04-14T23:34:16.675Z,0
2023-04-14T23:35:20.248Z,0
2023-04-14T23:36:24.556Z,0
2023-04-14T23:37:26.647Z,0
2023-04-14T23:38:29.428Z,0
2023-04-14T23:40:04.632Z,0
